sensor_id;sensor_type;location;lat;lon;timestamp;pressure;altitude;pressure_sealevel;temperature;humidity
68891;BME280;55932;48.702;8.884;2023-05-09T00:00:14;96410;;;12.4;74
68891;BME280;55932;48.702;8.884;2023-05-09T00:02:45;96400;;;12.5;73.5
68891;BME280;55932;48.702;8.884;2023-05-09T00:07:39;96410;;;12.5;73.5
68891;BME280;55932;48.702;8.884;2023-05-09T00:10:10;96410;;;12.5;73.5
68891;BME280;55932;48.702;8.884;2023-05-09T00:12:41;96410;;;12.5;73.5
68891;BME280;55932;48.702;8.884;2023-05-09T00:20:14;96410;;;12.3;73.5
68891;BME280;55932;48.702;8.884;2023-05-09T00:22:45;96400;;;12.2;73.5
68891;BME280;55932;48.702;8.884;2023-05-09T00:25:16;96400;;;12.2;73.5
68891;BME280;55932;48.702;8.884;2023-05-09T00:27:46;96390;;;12.1;73.5
68891;BME280;55932;48.702;8.884;2023-05-09T00:32:55;96400;;;12;73.5
68891;BME280;55932;48.702;8.884;2023-05-09T00:35:25;96400;;;12;74
68891;BME280;55932;48.702;8.884;2023-05-09T00:37:55;96390;;;12;73.5
68891;BME280;55932;48.702;8.884;2023-05-09T00:40:20;96390;;;12;73.5
68891;BME280;55932;48.702;8.884;2023-05-09T00:42:58;96390;;;12;73.5
68891;BME280;55932;48.702;8.884;2023-05-09T00:47:53;96380;;;12.2;73.5
68891;BME280;55932;48.702;8.884;2023-05-09T00:53:01;96370;;;12.6;73
68891;BME280;55932;48.702;8.884;2023-05-09T00:55:31;96380;;;12.8;73
68891;BME280;55932;48.702;8.884;2023-05-09T00:58:02;96380;;;13;72.5
68891;BME280;55932;48.702;8.884;2023-05-09T01:00:25;96380;;;13.1;72.5
68891;BME280;55932;48.702;8.884;2023-05-09T01:02:56;96380;;;13.2;72.5
68891;BME280;55932;48.702;8.884;2023-05-09T01:07:59;96370;;;13.2;72.5
68891;BME280;55932;48.702;8.884;2023-05-09T01:10:34;96370;;;13.2;72.5
68891;BME280;55932;48.702;8.884;2023-05-09T01:13:15;96370;;;13.3;72.5
68891;BME280;55932;48.702;8.884;2023-05-09T01:15:50;96370;;;13.3;72.5
68891;BME280;55932;48.702;8.884;2023-05-09T01:20:40;96360;;;13.2;72.5
68891;BME280;55932;48.702;8.884;2023-05-09T01:25:43;96350;;;13.3;73
68891;BME280;55932;48.702;8.884;2023-05-09T01:28:11;96360;;;13.3;73
68891;BME280;55932;48.702;8.884;2023-05-09T01:30:39;96350;;;13.2;73
68891;BME280;55932;48.702;8.884;2023-05-09T01:33:09;96350;;;13.2;73
68891;BME280;55932;48.702;8.884;2023-05-09T01:38:05;96340;;;13.2;73
68891;BME280;55932;48.702;8.884;2023-05-09T01:40:34;96350;;;13.2;73
68891;BME280;55932;48.702;8.884;2023-05-09T01:43:11;96340;;;13.1;73
68891;BME280;55932;48.702;8.884;2023-05-09T01:45:43;96340;;;13.1;73
68891;BME280;55932;48.702;8.884;2023-05-09T01:48:07;96340;;;13.1;73
68891;BME280;55932;48.702;8.884;2023-05-09T01:50:38;96340;;;13;73
68891;BME280;55932;48.702;8.884;2023-05-09T01:53:09;96340;;;13;73.5
68891;BME280;55932;48.702;8.884;2023-05-09T01:55:40;96340;;;13;73.5
68891;BME280;55932;48.702;8.884;2023-05-09T01:58:11;96340;;;13.1;73.5
68891;BME280;55932;48.702;8.884;2023-05-09T02:03:05;96340;;;13.1;73.5
68891;BME280;55932;48.702;8.884;2023-05-09T02:05:36;96340;;;13.2;73
68891;BME280;55932;48.702;8.884;2023-05-09T02:13:08;96330;;;13.1;73.5
68891;BME280;55932;48.702;8.884;2023-05-09T02:18:10;96330;;;13.1;73.5
68891;BME280;55932;48.702;8.884;2023-05-09T02:20:41;96330;;;13.1;73
68891;BME280;55932;48.702;8.884;2023-05-09T02:23:18;96330;;;13.1;73.5
68891;BME280;55932;48.702;8.884;2023-05-09T02:25:49;96330;;;13.1;73
68891;BME280;55932;48.702;8.884;2023-05-09T02:30:44;96320;;;13.1;73
68891;BME280;55932;48.702;8.884;2023-05-09T02:33:15;96330;;;13.2;73
68891;BME280;55932;48.702;8.884;2023-05-09T02:35:46;96320;;;13.2;73
68891;BME280;55932;48.702;8.884;2023-05-09T02:43:19;96300;;;13.1;73
68891;BME280;55932;48.702;8.884;2023-05-09T02:45:49;96300;;;13.1;73.5
68891;BME280;55932;48.702;8.884;2023-05-09T02:48:20;96300;;;13;73.5
68891;BME280;55932;48.702;8.884;2023-05-09T02:50:51;96310;;;13.1;73
68891;BME280;55932;48.702;8.884;2023-05-09T02:53:22;96300;;;13.1;73
68891;BME280;55932;48.702;8.884;2023-05-09T02:55:52;96300;;;13.1;73
68891;BME280;55932;48.702;8.884;2023-05-09T02:58:23;96300;;;13.1;73
68891;BME280;55932;48.702;8.884;2023-05-09T03:00:54;96310;;;13.1;73
68891;BME280;55932;48.702;8.884;2023-05-09T03:03:24;96300;;;13.1;73
68891;BME280;55932;48.702;8.884;2023-05-09T03:08:26;96300;;;13.1;73
68891;BME280;55932;48.702;8.884;2023-05-09T03:18:48;96300;;;13.2;73
68891;BME280;55932;48.702;8.884;2023-05-09T03:23:42;96300;;;13.2;73
68891;BME280;55932;48.702;8.884;2023-05-09T03:26:12;96290;;;13.3;73
68891;BME280;55932;48.702;8.884;2023-05-09T03:31:07;96280;;;13.2;73.5
68891;BME280;55932;48.702;8.884;2023-05-09T03:33:38;96290;;;13.3;73
68891;BME280;55932;48.702;8.884;2023-05-09T03:36:09;96280;;;13.3;73
68891;BME280;55932;48.702;8.884;2023-05-09T03:46:05;96280;;;13.4;73
68891;BME280;55932;48.702;8.884;2023-05-09T03:48:35;96270;;;13.3;73
68891;BME280;55932;48.702;8.884;2023-05-09T03:51:06;96270;;;13.3;73
68891;BME280;55932;48.702;8.884;2023-05-09T03:53:37;96270;;;13.5;72.5
68891;BME280;55932;48.702;8.884;2023-05-09T03:56:15;96270;;;13.5;72.5
68891;BME280;55932;48.702;8.884;2023-05-09T03:58:46;96270;;;13.4;72.5
68891;BME280;55932;48.702;8.884;2023-05-09T04:01:17;96280;;;13.4;72.5
68891;BME280;55932;48.702;8.884;2023-05-09T04:03:47;96270;;;13.4;72.5
68891;BME280;55932;48.702;8.884;2023-05-09T04:06:18;96270;;;13.4;73
68891;BME280;55932;48.702;8.884;2023-05-09T04:13:44;96260;;;13.5;72.5
68891;BME280;55932;48.702;8.884;2023-05-09T04:16:15;96270;;;13.4;73
68891;BME280;55932;48.702;8.884;2023-05-09T04:18:45;96270;;;13.3;73
68891;BME280;55932;48.702;8.884;2023-05-09T04:21:16;96270;;;13.4;73
68891;BME280;55932;48.702;8.884;2023-05-09T04:23:47;96260;;;13.4;73
68891;BME280;55932;48.702;8.884;2023-05-09T04:26:17;96270;;;13.4;73
68891;BME280;55932;48.702;8.884;2023-05-09T04:28:55;96260;;;13.4;73
68891;BME280;55932;48.702;8.884;2023-05-09T04:31:26;96260;;;13.4;73.5
68891;BME280;55932;48.702;8.884;2023-05-09T04:33:57;96260;;;13.3;73.5
68891;BME280;55932;48.702;8.884;2023-05-09T04:36:28;96260;;;13.5;73
68891;BME280;55932;48.702;8.884;2023-05-09T04:38:59;96270;;;13.5;72.5
68891;BME280;55932;48.702;8.884;2023-05-09T04:41:36;96260;;;13.5;72.5
68891;BME280;55932;48.702;8.884;2023-05-09T04:44:07;96260;;;13.6;72.5
68891;BME280;55932;48.702;8.884;2023-05-09T04:49:03;96260;;;13.7;72.5
68891;BME280;55932;48.702;8.884;2023-05-09T04:54:11;96260;;;13.6;73
68891;BME280;55932;48.702;8.884;2023-05-09T04:56:41;96260;;;13.6;72.5
68891;BME280;55932;48.702;8.884;2023-05-09T04:59:12;96260;;;13.7;72.5
68891;BME280;55932;48.702;8.884;2023-05-09T05:04:06;96260;;;13.8;72
68891;BME280;55932;48.702;8.884;2023-05-09T05:06:37;96260;;;13.9;72
68891;BME280;55932;48.702;8.884;2023-05-09T05:09:14;96260;;;13.9;72.5
68891;BME280;55932;48.702;8.884;2023-05-09T05:14:23;96260;;;13.9;72.5
68891;BME280;55932;48.702;8.884;2023-05-09T05:19:16;96260;;;14;72.5
68891;BME280;55932;48.702;8.884;2023-05-09T05:21:47;96250;;;13.9;72.5
68891;BME280;55932;48.702;8.884;2023-05-09T05:26:41;96250;;;14.1;72
68891;BME280;55932;48.702;8.884;2023-05-09T05:29:12;96250;;;14.2;72
68891;BME280;55932;48.702;8.884;2023-05-09T05:31:42;96250;;;14.4;71.5
68891;BME280;55932;48.702;8.884;2023-05-09T05:39:08;96250;;;14.3;71.5
68891;BME280;55932;48.702;8.884;2023-05-09T05:41:38;96250;;;14.3;71.5
68891;BME280;55932;48.702;8.884;2023-05-09T05:44:09;96240;;;14.2;72
68891;BME280;55932;48.702;8.884;2023-05-09T05:46:41;96250;;;14.3;72
68891;BME280;55932;48.702;8.884;2023-05-09T05:49:11;96250;;;14.2;72
68891;BME280;55932;48.702;8.884;2023-05-09T05:57:00;96250;;;14.3;72
68891;BME280;55932;48.702;8.884;2023-05-09T05:59:29;96250;;;14.4;72
68891;BME280;55932;48.702;8.884;2023-05-09T06:01:59;96240;;;14.5;72
68891;BME280;55932;48.702;8.884;2023-05-09T06:04:29;96240;;;14.7;71.5
68891;BME280;55932;48.702;8.884;2023-05-09T06:06:59;96230;;;14.8;71.5
68891;BME280;55932;48.702;8.884;2023-05-09T06:14:18;96230;;;15.1;71
68891;BME280;55932;48.702;8.884;2023-05-09T06:16:49;96220;;;15.1;71
68891;BME280;55932;48.702;8.884;2023-05-09T06:19:51;96220;;;15.2;71
68891;BME280;55932;48.702;8.884;2023-05-09T06:27:14;96210;;;15.5;71
68891;BME280;55932;48.702;8.884;2023-05-09T06:29:44;96220;;;15.7;70.5
68891;BME280;55932;48.702;8.884;2023-05-09T06:32:15;96210;;;15.8;70.5
68891;BME280;55932;48.702;8.884;2023-05-09T06:34:34;96210;;;15.6;71
68891;BME280;55932;48.702;8.884;2023-05-09T06:37:13;96210;;;15.5;71
68891;BME280;55932;48.702;8.884;2023-05-09T06:39:44;96210;;;15.5;70.5
68891;BME280;55932;48.702;8.884;2023-05-09T06:42:04;96210;;;15.5;70.5
68891;BME280;55932;48.702;8.884;2023-05-09T06:47:16;96210;;;15.6;71
68891;BME280;55932;48.702;8.884;2023-05-09T06:49:47;96200;;;16;70
68891;BME280;55932;48.702;8.884;2023-05-09T06:54:37;96200;;;16.2;70
68891;BME280;55932;48.702;8.884;2023-05-09T06:57:07;96190;;;16;70.5
68891;BME280;55932;48.702;8.884;2023-05-09T06:59:36;96180;;;16.1;70.5
68891;BME280;55932;48.702;8.884;2023-05-09T07:02:07;96180;;;16.4;70.5
68891;BME280;55932;48.702;8.884;2023-05-09T07:07:00;96190;;;16.4;71
68891;BME280;55932;48.702;8.884;2023-05-09T07:09:30;96190;;;16.5;70.5
68891;BME280;55932;48.702;8.884;2023-05-09T07:17:09;96190;;;16.2;70.5
68891;BME280;55932;48.702;8.884;2023-05-09T07:19:39;96190;;;15.9;71.5
68891;BME280;55932;48.702;8.884;2023-05-09T07:22:09;96180;;;15.8;71.5
68891;BME280;55932;48.702;8.884;2023-05-09T07:24:39;96180;;;15.7;71.5
68891;BME280;55932;48.702;8.884;2023-05-09T07:27:09;96170;;;15.8;71.5
68891;BME280;55932;48.702;8.884;2023-05-09T07:31:59;96160;;;15.9;71
68891;BME280;55932;48.702;8.884;2023-05-09T07:34:30;96160;;;16.2;70.5
68891;BME280;55932;48.702;8.884;2023-05-09T07:37:00;96150;;;16.6;70
68891;BME280;55932;48.702;8.884;2023-05-09T07:39:31;96150;;;16.7;70
68891;BME280;55932;48.702;8.884;2023-05-09T07:42:02;96150;;;16.6;70.5
68891;BME280;55932;48.702;8.884;2023-05-09T07:44:32;96150;;;16.4;71
68891;BME280;55932;48.702;8.884;2023-05-09T07:47:02;96140;;;16.2;71.5
68891;BME280;55932;48.702;8.884;2023-05-09T07:49:54;96140;;;16.2;71.5
68891;BME280;55932;48.702;8.884;2023-05-09T07:52:24;96140;;;16.5;71.5
68891;BME280;55932;48.702;8.884;2023-05-09T07:54:45;96130;;;17.2;70
68891;BME280;55932;48.702;8.884;2023-05-09T07:57:04;96130;;;17.9;69
68891;BME280;55932;48.702;8.884;2023-05-09T07:59:35;96120;;;18.6;68
68891;BME280;55932;48.702;8.884;2023-05-09T08:02:05;96120;;;18.5;68.5
68891;BME280;55932;48.702;8.884;2023-05-09T08:04:36;96120;;;18;69.5
68891;BME280;55932;48.702;8.884;2023-05-09T08:07:06;96110;;;17.4;71
68891;BME280;55932;48.702;8.884;2023-05-09T08:09:36;96110;;;17;71.5
68891;BME280;55932;48.702;8.884;2023-05-09T08:17:08;96110;;;17.5;70.5
68891;BME280;55932;48.702;8.884;2023-05-09T08:19:39;96100;;;17.3;71
68891;BME280;55932;48.702;8.884;2023-05-09T08:22:15;96090;;;17.2;71.5
68891;BME280;55932;48.702;8.884;2023-05-09T08:25:12;96090;;;17.5;71
68891;BME280;55932;48.702;8.884;2023-05-09T08:27:33;96090;;;18;70.5
68891;BME280;55932;48.702;8.884;2023-05-09T08:32:23;96090;;;19.6;67.5
68891;BME280;55932;48.702;8.884;2023-05-09T08:34:53;96090;;;19.8;67
68891;BME280;55932;48.702;8.884;2023-05-09T08:37:23;96090;;;19.7;67.5
68891;BME280;55932;48.702;8.884;2023-05-09T08:42:13;96080;;;21.2;65.5
68891;BME280;55932;48.702;8.884;2023-05-09T08:44:43;96080;;;20.5;67.5
68891;BME280;55932;48.702;8.884;2023-05-09T08:47:14;96080;;;19.6;68
68891;BME280;55932;48.702;8.884;2023-05-09T08:49:44;96080;;;18.6;70
68891;BME280;55932;48.702;8.884;2023-05-09T08:52:14;96080;;;18.3;70
68891;BME280;55932;48.702;8.884;2023-05-09T08:54:45;96080;;;18.6;69.5
68891;BME280;55932;48.702;8.884;2023-05-09T08:57:15;96070;;;19.7;68
68891;BME280;55932;48.702;8.884;2023-05-09T08:59:46;96060;;;22.4;64
68891;BME280;55932;48.702;8.884;2023-05-09T09:02:28;96060;;;22;65
68891;BME280;55932;48.702;8.884;2023-05-09T09:04:58;96050;;;22.6;64
68891;BME280;55932;48.702;8.884;2023-05-09T09:07:28;96050;;;21.7;66
68891;BME280;55932;48.702;8.884;2023-05-09T09:15:19;96040;;;21.1;67.5
68891;BME280;55932;48.702;8.884;2023-05-09T09:17:50;96040;;;23.1;64.5
68891;BME280;55932;48.702;8.884;2023-05-09T09:20:01;96040;;;23.9;63
68891;BME280;55932;48.702;8.884;2023-05-09T09:22:31;96030;;;23.4;64.5
68891;BME280;55932;48.702;8.884;2023-05-09T09:25:00;96030;;;22.6;66
68891;BME280;55932;48.702;8.884;2023-05-09T09:29:50;96020;;;22.2;67
68891;BME280;55932;48.702;8.884;2023-05-09T09:37:21;96010;;;21.7;67.5
68891;BME280;55932;48.702;8.884;2023-05-09T09:39:53;96010;;;21.4;68.5
68891;BME280;55932;48.702;8.884;2023-05-09T09:45:07;96000;;;24.3;63.5
68891;BME280;55932;48.702;8.884;2023-05-09T09:47:34;95990;;;23.1;66.5
68891;BME280;55932;48.702;8.884;2023-05-09T09:50:12;95990;;;22;69
68891;BME280;55932;48.702;8.884;2023-05-09T09:52:34;95990;;;22.4;69
68891;BME280;55932;48.702;8.884;2023-05-09T09:55:04;95990;;;23.1;68
68891;BME280;55932;48.702;8.884;2023-05-09T10:10:27;95960;;;23;68
68891;BME280;55932;48.702;8.884;2023-05-09T10:12:58;95960;;;22.8;69
68891;BME280;55932;48.702;8.884;2023-05-09T10:15:16;95960;;;22.4;68.5
68891;BME280;55932;48.702;8.884;2023-05-09T10:17:37;95950;;;22;69
68891;BME280;55932;48.702;8.884;2023-05-09T10:20:08;95950;;;23.6;67.5
68891;BME280;55932;48.702;8.884;2023-05-09T10:22:38;95950;;;23.9;67
68891;BME280;55932;48.702;8.884;2023-05-09T10:30:03;95940;;;22.6;69.5
68891;BME280;55932;48.702;8.884;2023-05-09T10:32:30;95940;;;22.9;69.5
68891;BME280;55932;48.702;8.884;2023-05-09T10:35:01;95930;;;24.5;66.5
68891;BME280;55932;48.702;8.884;2023-05-09T10:37:30;95920;;;24.8;65.5
68891;BME280;55932;48.702;8.884;2023-05-09T10:40:02;95920;;;25.7;66
68891;BME280;55932;48.702;8.884;2023-05-09T10:42:30;95910;;;25.1;67.5
68891;BME280;55932;48.702;8.884;2023-05-09T10:45:01;95910;;;23.8;69
68891;BME280;55932;48.702;8.884;2023-05-09T10:47:43;95910;;;23.4;69.5
68891;BME280;55932;48.702;8.884;2023-05-09T10:53:14;95890;;;24.5;68.5
68891;BME280;55932;48.702;8.884;2023-05-09T10:55:13;95890;;;24.8;68.5
68891;BME280;55932;48.702;8.884;2023-05-09T11:00:34;95890;;;23.7;68.5
68891;BME280;55932;48.702;8.884;2023-05-09T11:03:11;95890;;;23.5;70
68891;BME280;55932;48.702;8.884;2023-05-09T11:05:45;95870;;;24.1;69.5
68891;BME280;55932;48.702;8.884;2023-05-09T11:08:17;95860;;;23.9;69.5
68891;BME280;55932;48.702;8.884;2023-05-09T11:12:55;95860;;;23.7;69
68891;BME280;55932;48.702;8.884;2023-05-09T11:15:17;95860;;;24.2;68.5
68891;BME280;55932;48.702;8.884;2023-05-09T11:17:50;95850;;;24.1;68.5
68891;BME280;55932;48.702;8.884;2023-05-09T11:25:09;95840;;;23.6;68.5
68891;BME280;55932;48.702;8.884;2023-05-09T11:27:42;95840;;;23.4;68.5
68891;BME280;55932;48.702;8.884;2023-05-09T11:30:10;95840;;;22.8;69.5
68891;BME280;55932;48.702;8.884;2023-05-09T11:32:40;95840;;;22.6;69.5
68891;BME280;55932;48.702;8.884;2023-05-09T11:35:22;95830;;;22.6;69.5
68891;BME280;55932;48.702;8.884;2023-05-09T11:38:00;95830;;;22.9;69
68891;BME280;55932;48.702;8.884;2023-05-09T11:42:41;95830;;;22.6;69.5
68891;BME280;55932;48.702;8.884;2023-05-09T11:50:12;95820;;;22.1;70
68891;BME280;55932;48.702;8.884;2023-05-09T11:52:43;95810;;;21.8;70
68891;BME280;55932;48.702;8.884;2023-05-09T11:57:55;95800;;;21.5;70.5
68891;BME280;55932;48.702;8.884;2023-05-09T12:00:25;95800;;;21.4;71
68891;BME280;55932;48.702;8.884;2023-05-09T12:02:56;95800;;;21.4;70.5
68891;BME280;55932;48.702;8.884;2023-05-09T12:07:44;95790;;;21.9;70.5
68891;BME280;55932;48.702;8.884;2023-05-09T12:10:16;95780;;;22;71
68891;BME280;55932;48.702;8.884;2023-05-09T12:17:47;95770;;;22.6;70.5
68891;BME280;55932;48.702;8.884;2023-05-09T12:20:17;95760;;;22.4;70.5
68891;BME280;55932;48.702;8.884;2023-05-09T12:22:53;95760;;;22.7;70
68891;BME280;55932;48.702;8.884;2023-05-09T12:25:18;95760;;;22.6;69.5
68891;BME280;55932;48.702;8.884;2023-05-09T12:28:00;95750;;;22.6;69
68891;BME280;55932;48.702;8.884;2023-05-09T12:30:30;95750;;;22.5;70
68891;BME280;55932;48.702;8.884;2023-05-09T12:33:00;95740;;;22.5;70
68891;BME280;55932;48.702;8.884;2023-05-09T12:35:31;95730;;;22.9;70
68891;BME280;55932;48.702;8.884;2023-05-09T12:45:22;95720;;;24.6;67
68891;BME280;55932;48.702;8.884;2023-05-09T13:00:24;95710;;;24.5;68
68891;BME280;55932;48.702;8.884;2023-05-09T13:02:56;95700;;;24.6;68
68891;BME280;55932;48.702;8.884;2023-05-09T13:05:25;95710;;;24.4;67.5
68891;BME280;55932;48.702;8.884;2023-05-09T13:07:56;95700;;;23.9;68
68891;BME280;55932;48.702;8.884;2023-05-09T13:18:20;95680;;;23.6;69
68891;BME280;55932;48.702;8.884;2023-05-09T13:21:00;95670;;;23.2;70
68891;BME280;55932;48.702;8.884;2023-05-09T13:23:10;95670;;;23.4;70
68891;BME280;55932;48.702;8.884;2023-05-09T13:25:41;95660;;;23.7;69.5
68891;BME280;55932;48.702;8.884;2023-05-09T13:30:30;95660;;;23.5;69
68891;BME280;55932;48.702;8.884;2023-05-09T13:33:00;95660;;;23.4;69.5
68891;BME280;55932;48.702;8.884;2023-05-09T13:35:31;95650;;;23.6;69.5
68891;BME280;55932;48.702;8.884;2023-05-09T13:43:02;95640;;;23.5;69.5
68891;BME280;55932;48.702;8.884;2023-05-09T13:48:14;95640;;;23.8;70
68891;BME280;55932;48.702;8.884;2023-05-09T13:50:45;95630;;;24.5;68
68891;BME280;55932;48.702;8.884;2023-05-09T13:53:14;95630;;;24.4;68
68891;BME280;55932;48.702;8.884;2023-05-09T13:58:04;95620;;;24;69.5
68891;BME280;55932;48.702;8.884;2023-05-09T14:03:05;95610;;;24.1;68.5
68891;BME280;55932;48.702;8.884;2023-05-09T14:05:36;95610;;;24.1;68.5
68891;BME280;55932;48.702;8.884;2023-05-09T14:08:06;95600;;;24.3;69.5
68891;BME280;55932;48.702;8.884;2023-05-09T14:10:37;95600;;;25;69
68891;BME280;55932;48.702;8.884;2023-05-09T14:13:19;95590;;;24.8;69.5
68891;BME280;55932;48.702;8.884;2023-05-09T14:15:49;95600;;;23.9;69.5
68891;BME280;55932;48.702;8.884;2023-05-09T14:18:19;95600;;;23.2;70
68891;BME280;55932;48.702;8.884;2023-05-09T14:25:38;95590;;;22.2;70.5
68891;BME280;55932;48.702;8.884;2023-05-09T14:28:09;95600;;;22;70.5
68891;BME280;55932;48.702;8.884;2023-05-09T14:30:40;95590;;;21.7;71
68891;BME280;55932;48.702;8.884;2023-05-09T14:33:10;95590;;;21.5;71
68891;BME280;55932;48.702;8.884;2023-05-09T14:35:52;95590;;;21.4;71
68891;BME280;55932;48.702;8.884;2023-05-09T14:38:22;95580;;;21.2;71
68891;BME280;55932;48.702;8.884;2023-05-09T14:40:52;95590;;;21.1;71
68891;BME280;55932;48.702;8.884;2023-05-09T14:43:22;95590;;;21;71
68891;BME280;55932;48.702;8.884;2023-05-09T14:45:54;95580;;;20.6;71.5
68891;BME280;55932;48.702;8.884;2023-05-09T14:50:42;95580;;;19.9;72
68891;BME280;55932;48.702;8.884;2023-05-09T14:53:13;95590;;;19.6;72
68891;BME280;55932;48.702;8.884;2023-05-09T14:55:50;95570;;;18.8;72
68891;BME280;55932;48.702;8.884;2023-05-09T14:58:14;95580;;;18.5;72.5
68891;BME280;55932;48.702;8.884;2023-05-09T15:00:45;95570;;;18.5;72.5
68891;BME280;55932;48.702;8.884;2023-05-09T15:03:15;95570;;;18.6;72.5
68891;BME280;55932;48.702;8.884;2023-05-09T15:05:45;95560;;;18.8;72
68891;BME280;55932;48.702;8.884;2023-05-09T15:08:16;95560;;;18.8;72
68891;BME280;55932;48.702;8.884;2023-05-09T15:10:46;95560;;;19.1;71.5
68891;BME280;55932;48.702;8.884;2023-05-09T15:21:09;95540;;;20.1;70
68891;BME280;55932;48.702;8.884;2023-05-09T15:23:30;95540;;;20.3;70
68891;BME280;55932;48.702;8.884;2023-05-09T15:26:00;95540;;;20.5;70
68891;BME280;55932;48.702;8.884;2023-05-09T15:28:30;95540;;;20.4;70
68891;BME280;55932;48.702;8.884;2023-05-09T15:31:03;95540;;;20.2;70.5
68891;BME280;55932;48.702;8.884;2023-05-09T15:33:31;95530;;;20.1;71
68891;BME280;55932;48.702;8.884;2023-05-09T15:36:01;95530;;;19.9;71.5
68891;BME280;55932;48.702;8.884;2023-05-09T15:38:31;95520;;;19.9;71.5
68891;BME280;55932;48.702;8.884;2023-05-09T15:43:20;95510;;;19.9;71.5
68891;BME280;55932;48.702;8.884;2023-05-09T15:45:50;95510;;;19.8;71.5
68891;BME280;55932;48.702;8.884;2023-05-09T15:48:21;95510;;;19.8;71.5
68891;BME280;55932;48.702;8.884;2023-05-09T15:50:52;95520;;;19.8;71.5
68891;BME280;55932;48.702;8.884;2023-05-09T15:53:22;95510;;;19.9;71.5
68891;BME280;55932;48.702;8.884;2023-05-09T16:00:54;95500;;;20;71
68891;BME280;55932;48.702;8.884;2023-05-09T16:06:17;95500;;;19.8;71.5
68891;BME280;55932;48.702;8.884;2023-05-09T16:08:57;95500;;;19.7;71.5
68891;BME280;55932;48.702;8.884;2023-05-09T16:11:07;95490;;;19.5;72
68891;BME280;55932;48.702;8.884;2023-05-09T16:13:37;95500;;;19.5;72
68891;BME280;55932;48.702;8.884;2023-05-09T16:16:07;95500;;;19.6;71.5
68891;BME280;55932;48.702;8.884;2023-05-09T16:19:05;95490;;;19.6;71.5
68891;BME280;55932;48.702;8.884;2023-05-09T16:21:08;95490;;;19.5;71.5
68891;BME280;55932;48.702;8.884;2023-05-09T16:23:37;95490;;;19.4;71.5
68891;BME280;55932;48.702;8.884;2023-05-09T16:26:07;95490;;;19.3;72
68891;BME280;55932;48.702;8.884;2023-05-09T16:28:37;95490;;;19.1;72
68891;BME280;55932;48.702;8.884;2023-05-09T16:31:17;95490;;;19;72
68891;BME280;55932;48.702;8.884;2023-05-09T16:35:57;95500;;;17.8;72.5
68891;BME280;55932;48.702;8.884;2023-05-09T16:38:27;95500;;;17.2;73.5
68891;BME280;55932;48.702;8.884;2023-05-09T16:40:58;95500;;;16.8;74
68891;BME280;55932;48.702;8.884;2023-05-09T16:43:28;95500;;;16.6;74.5
68891;BME280;55932;48.702;8.884;2023-05-09T16:45:59;95490;;;16.5;74
68891;BME280;55932;48.702;8.884;2023-05-09T16:51:23;95500;;;16.5;74
68891;BME280;55932;48.702;8.884;2023-05-09T16:53:54;95500;;;16.5;74
68891;BME280;55932;48.702;8.884;2023-05-09T16:56:24;95490;;;16.5;73.5
68891;BME280;55932;48.702;8.884;2023-05-09T16:58:43;95500;;;16.4;73.5
68891;BME280;55932;48.702;8.884;2023-05-09T17:01:22;95500;;;16.4;73.5
68891;BME280;55932;48.702;8.884;2023-05-09T17:03:43;95510;;;16.4;73.5
68891;BME280;55932;48.702;8.884;2023-05-09T17:06:02;95510;;;16.4;73
68891;BME280;55932;48.702;8.884;2023-05-09T17:08:56;95520;;;16.3;73.5
68891;BME280;55932;48.702;8.884;2023-05-09T17:11:26;95520;;;16;73.5
68891;BME280;55932;48.702;8.884;2023-05-09T17:16:16;95510;;;15.6;74
68891;BME280;55932;48.702;8.884;2023-05-09T17:18:46;95510;;;15.5;74
68891;BME280;55932;48.702;8.884;2023-05-09T17:21:25;95520;;;15.5;74
68891;BME280;55932;48.702;8.884;2023-05-09T17:26:17;95520;;;15.5;74
68891;BME280;55932;48.702;8.884;2023-05-09T17:31:28;95530;;;15.5;74
68891;BME280;55932;48.702;8.884;2023-05-09T17:33:59;95530;;;15.4;74
68891;BME280;55932;48.702;8.884;2023-05-09T17:38:49;95520;;;15.2;74
68891;BME280;55932;48.702;8.884;2023-05-09T17:41:19;95520;;;15.1;74
68891;BME280;55932;48.702;8.884;2023-05-09T17:43:58;95520;;;14.9;74
68891;BME280;55932;48.702;8.884;2023-05-09T17:46:28;95510;;;14.7;74
68891;BME280;55932;48.702;8.884;2023-05-09T17:51:08;95510;;;14.5;74.5
68891;BME280;55932;48.702;8.884;2023-05-09T17:53:39;95500;;;14.4;74.5
68891;BME280;55932;48.702;8.884;2023-05-09T17:56:09;95500;;;14.3;74.5
68891;BME280;55932;48.702;8.884;2023-05-09T17:58:40;95500;;;14.3;74
68891;BME280;55932;48.702;8.884;2023-05-09T18:01:18;95500;;;14.3;74
68891;BME280;55932;48.702;8.884;2023-05-09T18:11:13;95490;;;14.3;74
68891;BME280;55932;48.702;8.884;2023-05-09T18:13:43;95500;;;14.3;74
68891;BME280;55932;48.702;8.884;2023-05-09T18:16:13;95500;;;14.2;74
68891;BME280;55932;48.702;8.884;2023-05-09T18:18:56;95500;;;14.3;74
68891;BME280;55932;48.702;8.884;2023-05-09T18:21:26;95500;;;14.2;74
68891;BME280;55932;48.702;8.884;2023-05-09T18:23:56;95500;;;14.2;74
68891;BME280;55932;48.702;8.884;2023-05-09T18:26:15;95500;;;14.2;74
68891;BME280;55932;48.702;8.884;2023-05-09T18:28:46;95500;;;14.3;74
68891;BME280;55932;48.702;8.884;2023-05-09T18:33:46;95510;;;14.2;74
68891;BME280;55932;48.702;8.884;2023-05-09T18:36:17;95510;;;14.2;74
68891;BME280;55932;48.702;8.884;2023-05-09T18:38:48;95510;;;14.3;74
68891;BME280;55932;48.702;8.884;2023-05-09T18:43:59;95510;;;14.2;73.5
68891;BME280;55932;48.702;8.884;2023-05-09T18:46:30;95510;;;14.2;74
68891;BME280;55932;48.702;8.884;2023-05-09T18:49:00;95520;;;14.2;73.5
68891;BME280;55932;48.702;8.884;2023-05-09T18:51:30;95520;;;14.1;73.5
68891;BME280;55932;48.702;8.884;2023-05-09T18:54:01;95520;;;14.1;74
68891;BME280;55932;48.702;8.884;2023-05-09T18:58:50;95520;;;14.1;74
68891;BME280;55932;48.702;8.884;2023-05-09T19:01:21;95510;;;14.1;74
68891;BME280;55932;48.702;8.884;2023-05-09T19:03:51;95510;;;14.1;74
68891;BME280;55932;48.702;8.884;2023-05-09T19:06:22;95510;;;14.1;74
68891;BME280;55932;48.702;8.884;2023-05-09T19:08:52;95510;;;14.1;74
68891;BME280;55932;48.702;8.884;2023-05-09T19:11:22;95510;;;14;74
68891;BME280;55932;48.702;8.884;2023-05-09T19:13:53;95510;;;14;74
68891;BME280;55932;48.702;8.884;2023-05-09T19:16:23;95520;;;14;74
68891;BME280;55932;48.702;8.884;2023-05-09T19:18:54;95520;;;14;74
68891;BME280;55932;48.702;8.884;2023-05-09T19:26:26;95520;;;13.9;74.5